createdAt,value
2017-08-02T00:01:18.281Z,94391.66
2017-08-02T00:03:46.002Z,94387.68
2017-08-02T00:06:13.762Z,94395.03
2017-08-02T00:08:41.536Z,94405.56
2017-08-02T00:11:09.302Z,94399.91
2017-08-02T00:13:37.001Z,94388.80
2017-08-02T00:16:04.871Z,94384.39
2017-08-02T00:18:33.827Z,94382.78
2017-08-02T00:21:01.573Z,94392.48
2017-08-02T00:23:30.463Z,94393.16
2017-08-02T00:25:58.152Z,94393.98
2017-08-02T00:28:25.884Z,94385.52
2017-08-02T00:30:53.565Z,94385.27
2017-08-02T00:33:21.355Z,94385.31
2017-08-02T00:35:49.094Z,94380.11
2017-08-02T00:38:16.862Z,94384.58
2017-08-02T00:40:44.618Z,94373.27
2017-08-02T00:43:12.317Z,94379.32
2017-08-02T00:45:40.004Z,94388.64
2017-08-02T00:48:08.565Z,94393.50
2017-08-02T00:50:36.311Z,94383.72
2017-08-02T00:53:04.036Z,94385.11
2017-08-02T00:55:31.743Z,94367.42
2017-08-02T00:57:59.525Z,94364.95
2017-08-02T01:00:27.313Z,94361.34
2017-08-02T01:02:55.098Z,94363.34
2017-08-02T01:05:22.811Z,94351.22
2017-08-02T01:07:50.678Z,94350.95
2017-08-02T01:10:18.383Z,94371.55
2017-08-02T01:12:46.069Z,94395.05
2017-08-02T01:15:13.811Z,94407.52
2017-08-02T01:17:41.573Z,94411.44
2017-08-02T01:20:09.368Z,94406.14
2017-08-02T01:22:37.089Z,94420.78
2017-08-02T01:25:04.786Z,94418.61
2017-08-02T01:27:32.582Z,94416.16
2017-08-02T01:30:00.372Z,94406.16
2017-08-02T01:32:28.361Z,94408.61
2017-08-02T01:34:56.141Z,94416.14
2017-08-02T01:37:23.835Z,94413.41
2017-08-02T01:39:51.639Z,94407.77
2017-08-02T01:42:19.341Z,94408.06
2017-08-02T01:44:48.127Z,94402.58
2017-08-02T01:47:16.761Z,94408.77
2017-08-02T01:49:45.528Z,94415.27
2017-08-02T01:52:13.246Z,94418.31
2017-08-02T01:54:41.099Z,94417.13
2017-08-02T01:57:08.865Z,94414.94
2017-08-02T01:59:36.598Z,94415.27
2017-08-02T02:02:04.338Z,94410.57
2017-08-02T02:04:32.215Z,94417.66
2017-08-02T02:07:00.254Z,94415.97
2017-08-02T02:09:27.947Z,94413.52
2017-08-02T02:11:55.686Z,94411.47
2017-08-02T02:14:23.443Z,94409.09
2017-08-02T02:16:51.201Z,94400.63
2017-08-02T02:19:18.934Z,94408.59
2017-08-02T02:21:46.649Z,94410.17
2017-08-02T02:24:14.391Z,94407.83
2017-08-02T02:26:42.119Z,94399.45
2017-08-02T02:29:09.927Z,94400.04
2017-08-02T02:31:38.558Z,94409.12
2017-08-02T02:34:06.343Z,94411.46
2017-08-02T02:36:34.045Z,94418.54
2017-08-02T02:39:01.734Z,94417.70
2017-08-02T02:41:29.501Z,94413.89
2017-08-02T02:43:57.256Z,94416.13
2017-08-02T02:46:25.049Z,94411.06
2017-08-02T02:48:54.270Z,94417.18
2017-08-02T02:51:21.972Z,94428.87
2017-08-02T02:53:49.762Z,94426.18
2017-08-02T02:56:17.477Z,94428.41
2017-08-02T02:58:45.172Z,94425.23
2017-08-02T03:01:12.914Z,94427.81
2017-08-02T03:03:40.601Z,94443.85
2017-08-02T03:06:08.382Z,94455.25
2017-08-02T03:08:36.121Z,94457.39
2017-08-02T03:11:03.889Z,94469.80
2017-08-02T03:13:31.602Z,94472.31
2017-08-02T03:15:59.358Z,94470.80
2017-08-02T03:18:27.167Z,94471.73
2017-08-02T03:20:55.270Z,94464.70
2017-08-02T03:23:23.027Z,94471.47
2017-08-02T03:25:50.741Z,94479.02
2017-08-02T03:28:18.448Z,94488.31
2017-08-02T03:30:46.186Z,94499.12
2017-08-02T03:33:13.884Z,94505.03
2017-08-02T03:35:41.775Z,94512.33
2017-08-02T03:38:09.464Z,94519.63
2017-08-02T03:40:37.190Z,94524.23
2017-08-02T03:43:04.936Z,94527.36
2017-08-02T03:45:32.710Z,94527.19
2017-08-02T03:48:00.420Z,94525.64
2017-08-02T03:50:28.202Z,94535.81
2017-08-02T03:52:56.061Z,94532.52
2017-08-02T03:55:23.929Z,94536.45
2017-08-02T03:57:51.641Z,94541.31
2017-08-02T04:00:19.395Z,94555.46
2017-08-02T04:02:47.141Z,94569.52
2017-08-02T04:05:14.863Z,94566.75
2017-08-02T04:07:42.765Z,94579.13
2017-08-02T04:10:10.519Z,94587.98
2017-08-02T04:12:38.358Z,94590.11
2017-08-02T04:15:06.928Z,94595.65
2017-08-02T04:17:34.616Z,94603.30
2017-08-02T04:20:02.395Z,94609.41
2017-08-02T04:22:30.106Z,94613.99
2017-08-02T04:24:57.860Z,94615.73
2017-08-02T04:27:25.603Z,94612.39
2017-08-02T04:29:53.471Z,94625.20
2017-08-02T04:32:21.227Z,94636.98
2017-08-02T04:34:49.049Z,94655.03
2017-08-02T04:37:16.830Z,94662.81
2017-08-02T04:39:44.523Z,94666.39
2017-08-02T04:42:12.602Z,94672.06
2017-08-02T04:44:40.365Z,94675.72
2017-08-02T04:47:08.054Z,94676.81
2017-08-02T04:49:35.773Z,94682.75
2017-08-02T04:52:03.555Z,94696.22
2017-08-02T04:54:31.248Z,94703.97
2017-08-02T04:56:58.988Z,94715.27
2017-08-02T04:59:26.726Z,94724.73
2017-08-02T05:01:54.417Z,94726.05
2017-08-02T05:04:22.164Z,94719.63
2017-08-02T05:06:49.929Z,94728.44
2017-08-02T05:09:17.636Z,94725.06
2017-08-02T05:11:45.354Z,94721.80
2017-08-02T05:14:13.126Z,94736.55
2017-08-02T05:16:40.827Z,94741.76
2017-08-02T05:19:08.549Z,94740.77
2017-08-02T05:21:36.395Z,94754.73
2017-08-02T05:24:04.108Z,94756.87
2017-08-02T05:26:31.828Z,94759.73
2017-08-02T05:28:59.599Z,94757.13
2017-08-02T05:31:27.300Z,94760.25
2017-08-02T05:33:55.072Z,94766.58
2017-08-02T05:36:22.747Z,94774.11
2017-08-02T05:38:50.542Z,94773.67
2017-08-02T05:41:18.270Z,94775.99
2017-08-02T05:43:46.039Z,94787.62
2017-08-02T05:46:13.879Z,94786.22
2017-08-02T05:48:41.599Z,94786.05
2017-08-02T05:51:09.364Z,94778.01
2017-08-02T05:53:37.150Z,94782.58
2017-08-02T05:56:04.864Z,94786.71
2017-08-02T05:58:33.639Z,94786.15
2017-08-02T06:01:01.470Z,94787.59
2017-08-02T06:03:29.937Z,94783.61
2017-08-02T06:05:57.778Z,94776.98
2017-08-02T06:08:25.539Z,94775.45
2017-08-02T06:10:53.322Z,94778.39
2017-08-02T06:13:22.095Z,94781.05
2017-08-02T06:15:49.876Z,94777.59
2017-08-02T06:18:17.768Z,94777.87
2017-08-02T06:20:45.738Z,94783.20
2017-08-02T06:23:13.493Z,94779.87
2017-08-02T06:25:41.230Z,94774.02
2017-08-02T06:28:09.060Z,94779.14
2017-08-02T06:30:37.774Z,94781.65
2017-08-02T06:33:05.589Z,94779.08
2017-08-02T06:35:33.299Z,94787.08
2017-08-02T06:38:01.070Z,94783.62
2017-08-02T06:40:28.885Z,94779.70
2017-08-02T06:42:56.670Z,94771.92
2017-08-02T06:45:24.514Z,94769.28
2017-08-02T06:47:52.287Z,94777.02
2017-08-02T06:50:20.170Z,94774.56
2017-08-02T06:52:47.946Z,94769.28
2017-08-02T06:55:16.285Z,94770.13
2017-08-02T06:57:44.044Z,94769.47
2017-08-02T07:00:11.767Z,94768.97
2017-08-02T07:02:39.528Z,94766.48
2017-08-02T07:05:07.498Z,94762.17
2017-08-02T07:07:35.209Z,94762.84
2017-08-02T07:10:02.985Z,94762.44
2017-08-02T07:12:30.695Z,94769.91
2017-08-02T07:14:58.497Z,94760.55
2017-08-02T07:17:27.479Z,94759.06
2017-08-02T07:19:55.225Z,94766.37
2017-08-02T07:22:23.006Z,94758.20
2017-08-02T07:24:50.776Z,94757.83
2017-08-02T07:27:19.336Z,94756.95
2017-08-02T07:29:47.092Z,94754.55
2017-08-02T07:32:14.844Z,94750.15
2017-08-02T07:34:42.649Z,94748.93
2017-08-02T07:37:10.436Z,94751.30
2017-08-02T07:39:38.137Z,94745.70
2017-08-02T07:42:05.892Z,94742.47
2017-08-02T07:44:33.611Z,94742.37
2017-08-02T07:47:01.374Z,94733.19
2017-08-02T07:49:29.102Z,94733.27
2017-08-02T07:51:56.877Z,94739.31
2017-08-02T07:54:24.611Z,94744.16
2017-08-02T07:56:52.285Z,94748.70
2017-08-02T07:59:20.063Z,94737.27
2017-08-02T08:01:47.840Z,94737.62
2017-08-02T08:04:15.643Z,94736.13
2017-08-02T08:06:43.398Z,94729.04
2017-08-02T08:09:11.196Z,94734.67
2017-08-02T08:11:38.868Z,94727.77
2017-08-02T08:14:06.573Z,94721.25
2017-08-02T08:16:34.349Z,94711.16
2017-08-02T08:19:02.125Z,94713.96
2017-08-02T08:21:29.870Z,94710.45
2017-08-02T08:23:57.665Z,94713.36
2017-08-02T08:26:26.643Z,94707.92
2017-08-02T08:28:54.589Z,94702.69
2017-08-02T08:31:22.323Z,94701.94
2017-08-02T08:33:50.065Z,94695.53
2017-08-02T08:36:17.846Z,94695.58
2017-08-02T08:38:45.571Z,94684.38
2017-08-02T08:41:13.351Z,94687.19
2017-08-02T08:43:41.060Z,94681.92
2017-08-02T08:46:08.807Z,94678.90
2017-08-02T08:48:36.667Z,94690.54
2017-08-02T08:51:05.220Z,94682.20
2017-08-02T08:53:33.066Z,94684.99
2017-08-02T08:56:00.932Z,94684.06
2017-08-02T08:58:28.702Z,94682.75
2017-08-02T09:00:56.450Z,94683.67
2017-08-02T09:03:24.273Z,94677.53
2017-08-02T09:05:52.079Z,94675.78
2017-08-02T09:08:19.773Z,94675.38
2017-08-02T09:10:47.524Z,94675.47
2017-08-02T09:13:15.271Z,94674.47
2017-08-02T09:15:43.075Z,94671.37
2017-08-02T09:18:11.828Z,94676.77
2017-08-02T09:20:39.604Z,94662.20
2017-08-02T09:23:07.330Z,94662.92
2017-08-02T09:25:35.136Z,94662.48
2017-08-02T09:28:02.932Z,94663.25
2017-08-02T09:30:30.663Z,94663.06
2017-08-02T09:32:58.499Z,94662.44
2017-08-02T09:35:26.318Z,94665.27
2017-08-02T09:37:54.055Z,94659.27
2017-08-02T09:40:21.904Z,94651.84
2017-08-02T09:42:49.719Z,94658.84
2017-08-02T09:45:17.484Z,94653.16
2017-08-02T09:47:45.264Z,94651.16
2017-08-02T09:50:13.076Z,94645.80
2017-08-02T09:52:40.837Z,94651.70
2017-08-02T09:55:09.832Z,94649.19
2017-08-02T09:57:38.024Z,94648.73
2017-08-02T10:00:05.876Z,94638.84
2017-08-02T10:02:33.825Z,94635.53
2017-08-02T10:05:02.159Z,94639.50
2017-08-02T10:07:29.953Z,94639.55
2017-08-02T10:09:57.803Z,94637.05
2017-08-02T10:12:25.607Z,94629.13
2017-08-02T10:14:53.373Z,94636.22
2017-08-02T10:17:22.065Z,94630.69
2017-08-02T10:19:50.878Z,94621.68
2017-08-02T10:22:18.724Z,94621.72
2017-08-02T10:24:46.514Z,94619.99
2017-08-02T10:27:14.344Z,94621.50
2017-08-02T10:29:42.249Z,94618.70
2017-08-02T10:32:09.960Z,94610.88
2017-08-02T10:34:37.703Z,94612.00
2017-08-02T10:37:05.500Z,94608.66
2017-08-02T10:39:33.273Z,94610.84
2017-08-02T10:42:01.627Z,94607.64
2017-08-02T10:44:29.389Z,94607.98
2017-08-02T10:46:57.088Z,94602.44
2017-08-02T10:49:24.837Z,94602.16
2017-08-02T10:51:52.860Z,94600.34
2017-08-02T10:54:20.630Z,94598.27
2017-08-02T10:56:48.432Z,94593.73
2017-08-02T10:59:16.206Z,94589.58
2017-08-02T11:01:43.972Z,94587.75
2017-08-02T11:04:11.656Z,94584.64
2017-08-02T11:06:39.538Z,94597.92
2017-08-02T11:09:07.247Z,94590.06
2017-08-02T11:11:34.980Z,94589.59
2017-08-02T11:14:03.778Z,94584.89
2017-08-02T11:16:31.518Z,94572.69
2017-08-02T11:18:59.358Z,94575.64
2017-08-02T11:21:27.154Z,94574.20
2017-08-02T11:23:54.930Z,94572.13
2017-08-02T11:26:22.736Z,94570.20
2017-08-02T11:28:50.502Z,94565.66
2017-08-02T11:31:18.274Z,94565.11
2017-08-02T11:33:47.040Z,94561.27
2017-08-02T11:36:14.791Z,94557.17
2017-08-02T11:38:42.550Z,94560.16
2017-08-02T11:41:10.301Z,94552.53
2017-08-02T11:43:38.299Z,94553.83
2017-08-02T11:46:06.003Z,94550.70
2017-08-02T11:48:33.706Z,94548.29
2017-08-02T11:51:01.435Z,94536.41
2017-08-02T11:53:29.144Z,94531.45
2017-08-02T11:55:57.023Z,94521.98
2017-08-02T11:58:24.727Z,94524.77
2017-08-02T12:00:52.497Z,94524.96
2017-08-02T12:03:20.473Z,94518.95
2017-08-02T12:05:48.211Z,94525.25
2017-08-02T12:08:15.975Z,94515.69
2017-08-02T12:10:43.762Z,94511.24
2017-08-02T12:13:11.482Z,94498.45
2017-08-02T12:15:39.265Z,94490.77
2017-08-02T12:18:07.036Z,94491.50
2017-08-02T12:20:34.733Z,94484.32
2017-08-02T12:23:02.484Z,94475.83
2017-08-02T12:25:30.294Z,94476.84
2017-08-02T12:27:58.043Z,94466.63
2017-08-02T12:30:25.773Z,94462.47
2017-08-02T12:32:53.536Z,94462.91
2017-08-02T12:35:21.275Z,94461.81
2017-08-02T12:37:49.165Z,94459.25
2017-08-02T12:40:16.876Z,94460.81
2017-08-02T12:42:44.568Z,94461.62
2017-08-02T12:45:12.357Z,94461.66
2017-08-02T12:47:40.081Z,94468.32
2017-08-02T12:50:07.863Z,94469.64
2017-08-02T12:52:35.634Z,94475.28
2017-08-02T12:55:03.474Z,94468.80
2017-08-02T12:57:31.218Z,94467.14
2017-08-02T12:59:58.951Z,94454.65
2017-08-02T13:02:26.759Z,94462.70
2017-08-02T13:04:54.504Z,94472.99
2017-08-02T13:07:22.213Z,94463.04
2017-08-02T13:09:49.992Z,94469.14
2017-08-02T13:12:18.533Z,94469.70
2017-08-02T13:14:46.265Z,94463.27
2017-08-02T13:17:13.966Z,94457.87
2017-08-02T13:19:41.668Z,94463.76
2017-08-02T13:22:09.454Z,94468.61
2017-08-02T13:24:37.166Z,94478.09
2017-08-02T13:27:05.499Z,94495.91
2017-08-02T13:29:33.309Z,94502.05
2017-08-02T13:32:01.110Z,94518.02
2017-08-02T13:34:29.055Z,94533.77
2017-08-02T13:36:56.937Z,94554.61
2017-08-02T13:39:24.705Z,94548.20
2017-08-02T13:41:52.517Z,94537.05
2017-08-02T13:44:20.312Z,94531.55
2017-08-02T13:46:48.157Z,94546.03
2017-08-02T13:49:15.898Z,94550.36
2017-08-02T13:51:44.521Z,94556.02
2017-08-02T13:54:12.268Z,94547.48
2017-08-02T13:56:40.036Z,94543.36
2017-08-02T13:59:08.009Z,94545.80
2017-08-02T14:01:35.790Z,94556.02
2017-08-02T14:04:04.688Z,94563.55
2017-08-02T14:06:32.665Z,94570.59
2017-08-02T14:09:00.440Z,94569.76
2017-08-02T14:11:28.297Z,94568.64
2017-08-02T14:13:56.156Z,94585.97
2017-08-02T14:16:23.901Z,94600.94
2017-08-02T14:18:52.898Z,94613.27
2017-08-02T14:21:21.457Z,94624.75
2017-08-02T14:23:49.273Z,94620.90
2017-08-02T14:26:17.055Z,94607.61
2017-08-02T14:28:45.026Z,94605.23
2017-08-02T14:31:12.879Z,94609.17
2017-08-02T14:33:41.233Z,94611.30
2017-08-02T14:36:09.092Z,94598.82
2017-08-02T14:38:37.096Z,94608.10
2017-08-02T14:41:04.839Z,94600.47
2017-08-02T14:43:32.790Z,94606.38
2017-08-02T14:46:00.595Z,94598.34
2017-08-02T14:48:28.349Z,94601.86
2017-08-02T14:50:56.071Z,94609.42
2017-08-02T14:53:25.001Z,94616.34
2017-08-02T14:55:52.829Z,94628.75
2017-08-02T14:58:20.854Z,94639.67
2017-08-02T15:00:48.671Z,94656.14
2017-08-02T15:03:16.444Z,94655.84
2017-08-02T15:05:44.207Z,94659.94
2017-08-02T15:08:11.991Z,94661.00
2017-08-02T15:10:39.918Z,94660.63
2017-08-02T15:13:07.688Z,94657.98
2017-08-02T15:15:35.448Z,94665.66
2017-08-02T15:18:03.327Z,94676.28
2017-08-02T15:20:31.121Z,94686.67
2017-08-02T15:22:58.952Z,94693.19
2017-08-02T15:25:26.724Z,94686.06
2017-08-02T15:27:55.049Z,94683.48
2017-08-02T15:30:22.899Z,94691.69
2017-08-02T15:32:50.901Z,94701.70
2017-08-02T15:35:18.820Z,94709.09
2017-08-02T15:37:47.905Z,94699.17
2017-08-02T15:40:16.526Z,94703.37
2017-08-02T15:42:44.268Z,94703.63
2017-08-02T15:45:12.103Z,94711.56
2017-08-02T15:47:39.822Z,94713.22
2017-08-02T15:50:07.626Z,94715.48
2017-08-02T15:52:35.456Z,94736.57
2017-08-02T15:55:03.247Z,94733.20
2017-08-02T15:57:31.013Z,94735.39
2017-08-02T15:59:59.432Z,94737.98
2017-08-02T16:02:27.136Z,94737.80
2017-08-02T16:04:54.950Z,94757.69
2017-08-02T16:07:22.720Z,94774.64
2017-08-02T16:09:51.811Z,94770.77
2017-08-02T16:12:19.514Z,94778.13
2017-08-02T16:14:48.157Z,94783.23
2017-08-02T16:17:15.955Z,94781.92
2017-08-02T16:19:43.746Z,94788.75
2017-08-02T16:22:11.581Z,94788.13
2017-08-02T16:24:39.391Z,94784.26
2017-08-02T16:27:07.148Z,94779.44
2017-08-02T16:29:34.986Z,94785.59
2017-08-02T16:32:02.806Z,94795.41
2017-08-02T16:34:30.546Z,94801.36
2017-08-02T16:36:58.323Z,94802.80
2017-08-02T16:39:26.024Z,94788.76
2017-08-02T16:41:53.762Z,94785.95
2017-08-02T16:44:21.568Z,94778.99
2017-08-02T16:46:49.348Z,94773.92
2017-08-02T16:49:17.154Z,94767.72
2017-08-02T16:51:44.940Z,94754.66
2017-08-02T16:54:12.703Z,94745.23
2017-08-02T16:56:40.474Z,94734.86
2017-08-02T16:59:08.190Z,94741.26
2017-08-02T17:01:36.009Z,94738.54
2017-08-02T17:04:03.737Z,94723.67
2017-08-02T17:06:31.573Z,94726.09
2017-08-02T17:08:59.363Z,94718.91
2017-08-02T17:11:27.063Z,94722.44
2017-08-02T17:13:54.919Z,94720.82
2017-08-02T17:16:22.662Z,94715.25
2017-08-02T17:18:50.408Z,94717.17
2017-08-02T17:21:18.235Z,94719.92
2017-08-02T17:23:45.944Z,94701.20
2017-08-02T17:26:13.792Z,94683.74
2017-08-02T17:28:41.683Z,94696.42
2017-08-02T17:31:09.616Z,94692.62
2017-08-02T17:33:37.419Z,94698.75
2017-08-02T17:36:05.350Z,94701.38
2017-08-02T17:38:33.285Z,94706.55
2017-08-02T17:41:01.055Z,94695.95
2017-08-02T17:43:30.505Z,94699.12
2017-08-02T17:45:58.294Z,94698.08
2017-08-02T17:48:26.150Z,94695.27
2017-08-02T17:50:53.915Z,94697.16
2017-08-02T17:53:21.690Z,94706.86
2017-08-02T17:55:49.513Z,94705.47
2017-08-02T17:58:18.477Z,94712.28
2017-08-02T18:00:46.693Z,94715.45
2017-08-02T18:03:14.552Z,94707.88
2017-08-02T18:05:42.448Z,94705.79
2017-08-02T18:08:10.879Z,94705.62
2017-08-02T18:10:38.856Z,94706.23
2017-08-02T18:13:06.678Z,94701.16
2017-08-02T18:15:39.288Z,94704.60
2017-08-02T18:18:07.270Z,94704.60
2017-08-02T18:20:37.142Z,94700.62
2017-08-02T18:23:05.030Z,94697.32
2017-08-02T18:25:33.106Z,94706.33
2017-08-02T18:28:00.914Z,94702.63
2017-08-02T18:30:28.730Z,94710.53
2017-08-02T18:32:56.465Z,94704.13
2017-08-02T18:35:25.168Z,94706.95
2017-08-02T18:37:53.162Z,94706.13
2017-08-02T18:40:20.955Z,94711.97
2017-08-02T18:42:48.768Z,94710.48
2017-08-02T18:45:16.503Z,94713.58
2017-08-02T18:47:45.049Z,94719.41
2017-08-02T18:50:12.938Z,94721.55
2017-08-02T18:52:40.751Z,94716.39
2017-08-02T18:55:08.512Z,94718.87
2017-08-02T18:57:36.567Z,94721.50
2017-08-02T19:00:04.720Z,94735.13
2017-08-02T19:02:32.677Z,94734.22
2017-08-02T19:05:00.503Z,94731.34
2017-08-02T19:07:29.245Z,94743.53
2017-08-02T19:09:57.138Z,94752.94
2017-08-02T19:12:25.939Z,94761.33
2017-08-02T19:14:53.800Z,94762.25
2017-08-02T19:17:21.525Z,94765.37
2017-08-02T19:19:49.306Z,94767.24
2017-08-02T19:22:17.061Z,94766.77
2017-08-02T19:24:44.884Z,94769.64
2017-08-02T19:27:12.756Z,94773.53
2017-08-02T19:29:40.615Z,94774.41
2017-08-02T19:32:08.656Z,94772.75
2017-08-02T19:34:36.439Z,94771.85
2017-08-02T19:37:04.223Z,94773.28
2017-08-02T19:39:32.026Z,94773.72
2017-08-02T19:41:59.782Z,94776.83
2017-08-02T19:44:27.587Z,94777.54
2017-08-02T19:46:56.112Z,94778.77
2017-08-02T19:49:24.611Z,94777.41
2017-08-02T19:51:52.416Z,94781.83
2017-08-02T19:54:20.441Z,94776.41
2017-08-02T19:56:48.354Z,94774.30
2017-08-02T19:59:16.157Z,94778.29
2017-08-02T20:01:43.934Z,94775.55
2017-08-02T20:04:11.795Z,94772.92
2017-08-02T20:06:39.542Z,94782.96
2017-08-02T20:09:07.368Z,94779.39
2017-08-02T20:11:35.084Z,94776.75
2017-08-02T20:14:02.776Z,94776.39
2017-08-02T20:16:30.649Z,94772.02
2017-08-02T20:18:58.899Z,94778.88
2017-08-02T20:21:27.770Z,94778.74
2017-08-02T20:23:56.124Z,94779.97
2017-08-02T20:26:24.916Z,94772.04
2017-08-02T20:28:52.694Z,94770.23
2017-08-02T20:31:20.402Z,94769.31
2017-08-02T20:33:48.159Z,94772.70
2017-08-02T20:36:15.868Z,94770.90
2017-08-02T20:38:43.634Z,94771.47
2017-08-02T20:41:11.376Z,94771.73
2017-08-02T20:43:39.203Z,94776.65
2017-08-02T20:46:07.275Z,94776.39
2017-08-02T20:48:35.062Z,94777.11
2017-08-02T20:51:02.903Z,94783.48
2017-08-02T20:53:30.760Z,94788.93
2017-08-02T20:55:58.591Z,94793.27
2017-08-02T20:58:26.327Z,94793.79
2017-08-02T21:00:54.183Z,94793.16
2017-08-02T21:03:22.066Z,94797.88
2017-08-02T21:05:49.864Z,94801.88
2017-08-02T21:08:17.627Z,94803.20
2017-08-02T21:10:45.402Z,94807.91
2017-08-02T21:13:13.196Z,94802.35
2017-08-02T21:15:40.886Z,94803.28
2017-08-02T21:18:09.477Z,94799.20
2017-08-02T21:20:37.374Z,94801.31
2017-08-02T21:23:05.845Z,94804.88
2017-08-02T21:25:33.661Z,94789.31
2017-08-02T21:28:01.397Z,94804.09
2017-08-02T21:30:29.335Z,94800.77
2017-08-02T21:32:57.106Z,94811.08
2017-08-02T21:35:24.827Z,94810.44
2017-08-02T21:37:52.620Z,94808.44
2017-08-02T21:40:20.475Z,94814.22
2017-08-02T21:42:48.216Z,94813.93
2017-08-02T21:45:16.042Z,94819.51
2017-08-02T21:47:43.777Z,94817.89
2017-08-02T21:50:11.551Z,94819.84
2017-08-02T21:52:39.541Z,94818.54
2017-08-02T21:55:08.201Z,94821.44
2017-08-02T21:57:35.964Z,94821.55
2017-08-02T22:00:04.744Z,94816.66
2017-08-02T22:02:33.896Z,94816.31
2017-08-02T22:05:01.720Z,94814.31
2017-08-02T22:07:29.407Z,94822.61
2017-08-02T22:09:57.127Z,94819.30
2017-08-02T22:12:25.022Z,94823.39
2017-08-02T22:14:52.819Z,94827.33
2017-08-02T22:17:20.584Z,94822.28
2017-08-02T22:19:48.366Z,94829.81
2017-08-02T22:22:16.064Z,94824.78
2017-08-02T22:24:44.731Z,94827.06
2017-08-02T22:27:12.449Z,94824.68
2017-08-02T22:29:40.160Z,94827.86
2017-08-02T22:32:07.914Z,94819.13
2017-08-02T22:34:35.666Z,94815.88
2017-08-02T22:37:03.440Z,94821.62
2017-08-02T22:39:31.147Z,94818.94
2017-08-02T22:41:58.944Z,94821.91
2017-08-02T22:44:26.711Z,94825.23
2017-08-02T22:46:54.488Z,94827.44
2017-08-02T22:49:22.249Z,94826.09
2017-08-02T22:51:49.981Z,94818.21
2017-08-02T22:54:17.828Z,94809.73
2017-08-02T22:56:45.598Z,94807.17
2017-08-02T22:59:14.520Z,94814.06
2017-08-02T23:01:42.319Z,94809.23
2017-08-02T23:04:10.121Z,94803.42
2017-08-02T23:06:37.890Z,94801.08
2017-08-02T23:09:05.695Z,94800.98
2017-08-02T23:11:33.382Z,94798.01
2017-08-02T23:14:01.056Z,94798.19
2017-08-02T23:16:28.878Z,94785.59
2017-08-02T23:18:56.621Z,94783.98
2017-08-02T23:21:24.303Z,94789.28
2017-08-02T23:23:52.127Z,94783.94
2017-08-02T23:26:19.907Z,94785.90
2017-08-02T23:28:47.607Z,94783.82
2017-08-02T23:31:16.594Z,94787.52
2017-08-02T23:33:44.413Z,94788.39
2017-08-02T23:36:12.241Z,94792.05
2017-08-02T23:38:39.952Z,94789.72
2017-08-02T23:41:07.755Z,94790.23
2017-08-02T23:43:35.529Z,94794.05
2017-08-02T23:46:03.326Z,94790.34
2017-08-02T23:48:31.038Z,94790.73
2017-08-02T23:50:58.899Z,94788.91
2017-08-02T23:53:26.651Z,94788.40
2017-08-02T23:55:54.458Z,94781.14
2017-08-02T23:58:22.273Z,94781.44
